createdAt,value
2023-01-12T00:00:01.492Z,99.7
2023-01-12T00:01:01.089Z,99.1
2023-01-12T00:02:01.143Z,98.8
2023-01-12T00:03:01.060Z,98.8
2023-01-12T00:04:00.841Z,98.6
2023-01-12T00:05:00.503Z,98.3
2023-01-12T00:06:00.226Z,97.6
2023-01-12T00:07:00.411Z,97.2
2023-01-12T00:08:00.467Z,96.7
2023-01-12T00:09:00.477Z,96.3
2023-01-12T00:10:00.126Z,95.5
2023-01-12T00:10:59.935Z,94.5
2023-01-12T00:11:59.613Z,94.1
2023-01-12T00:13:01.260Z,94.1
2023-01-12T00:14:01.979Z,93.4
2023-01-12T00:15:01.494Z,93
2023-01-12T00:16:01.241Z,92.5
2023-01-12T00:17:03.910Z,92.1
2023-01-12T00:18:01.097Z,91.7
2023-01-12T00:19:01.104Z,91.3
2023-01-12T00:20:01.118Z,90.3
2023-01-12T00:21:01.123Z,90.3
2023-01-12T00:22:01.121Z,90.3
2023-01-12T00:23:01.126Z,90.1
2023-01-12T00:24:01.402Z,90
2023-01-12T00:25:01.553Z,90
2023-01-12T00:26:01.198Z,89.3
2023-01-12T00:27:01.340Z,89
2023-01-12T00:28:01.176Z,87.2
2023-01-12T00:29:01.062Z,85.9
2023-01-12T00:30:01.095Z,84.2
2023-01-12T00:31:01.199Z,83.5
2023-01-12T00:32:01.271Z,82.3
2023-01-12T00:33:01.471Z,81.9
2023-01-12T00:34:01.164Z,81.6
2023-01-12T00:35:01.108Z,79.3
2023-01-12T00:36:01.094Z,78.4
2023-01-12T00:37:01.138Z,78.1
2023-01-12T00:38:01.116Z,77.9
2023-01-12T00:39:01.126Z,77.3
2023-01-12T00:40:03.028Z,76.4
2023-01-12T00:41:01.134Z,75.5
2023-01-12T00:42:01.203Z,75.3
2023-01-12T00:43:01.172Z,75.1
2023-01-12T00:44:01.350Z,74.6
2023-01-12T00:45:01.155Z,73.3
2023-01-12T00:46:01.332Z,72
2023-01-12T00:47:02.751Z,71.4
2023-01-12T00:48:02.750Z,71
2023-01-12T00:49:02.140Z,70.2
2023-01-12T00:50:01.184Z,69.7
2023-01-12T00:51:01.393Z,69.9
2023-01-12T00:52:01.141Z,69.5
2023-01-12T00:53:01.856Z,69.1
2023-01-12T00:54:01.360Z,68.5
2023-01-12T00:55:02.067Z,66.9
2023-01-12T00:56:02.768Z,65.2
2023-01-12T00:57:01.133Z,64.6
2023-01-12T00:58:01.792Z,63.3
2023-01-12T00:59:01.182Z,63.3
2023-01-12T01:00:01.161Z,63
2023-01-12T01:01:05.583Z,61.7
2023-01-12T01:02:01.684Z,60.2
2023-01-12T01:03:00.984Z,59.5
2023-01-12T01:04:00.780Z,59.3
2023-01-12T01:05:00.482Z,58.3
2023-01-12T01:06:08.268Z,57.3
2023-01-12T01:07:01.067Z,56.9
2023-01-12T01:08:01.182Z,56.4
2023-01-12T01:09:01.105Z,55.6
2023-01-12T01:10:01.055Z,54.9
2023-01-12T01:11:11.251Z,54.5
2023-01-12T01:12:01.550Z,54.4
2023-01-12T01:13:01.138Z,53.7
2023-01-12T01:14:01.172Z,53.2
2023-01-12T01:15:01.148Z,52.7
2023-01-12T01:16:13.969Z,52.1
2023-01-12T01:17:01.592Z,51.8
2023-01-12T01:18:01.893Z,50.9
2023-01-12T01:19:01.736Z,50.5
2023-01-12T01:20:01.220Z,50.2
2023-01-12T01:21:16.722Z,50.1
2023-01-12T01:22:01.199Z,49.7
2023-01-12T01:23:01.089Z,49.7
2023-01-12T01:24:01.091Z,49.7
2023-01-12T01:25:01.108Z,49.5
2023-01-12T01:26:01.132Z,49.3
2023-01-12T01:27:01.234Z,49.1
2023-01-12T01:28:01.468Z,49.1
2023-01-12T01:29:01.191Z,49.1
2023-01-12T01:30:01.167Z,48.8
2023-01-12T01:31:01.259Z,48.2
2023-01-12T01:32:01.879Z,47.3
2023-01-12T01:33:02.522Z,47.5
2023-01-12T01:34:01.189Z,47
2023-01-12T01:35:01.127Z,47
2023-01-12T01:36:01.122Z,46.6
2023-01-12T01:37:01.473Z,46.4
2023-01-12T01:38:01.083Z,46.3
2023-01-12T01:39:01.107Z,46.2
2023-01-12T01:40:01.099Z,45.8
2023-01-12T01:41:01.111Z,45.9
2023-01-12T01:42:01.224Z,45.6
2023-01-12T01:43:01.285Z,45.7
2023-01-12T01:44:01.174Z,45.3
2023-01-12T01:45:01.589Z,44.7
2023-01-12T01:46:01.627Z,44.9
2023-01-12T01:47:01.186Z,44.7
2023-01-12T01:48:01.158Z,44.8
2023-01-12T01:49:01.279Z,44.5
2023-01-12T01:50:01.173Z,44.3
2023-01-12T01:51:01.072Z,44
2023-01-12T01:52:01.478Z,43.2
2023-01-12T01:53:01.093Z,43.2
2023-01-12T01:54:01.079Z,43
2023-01-12T01:55:01.096Z,42.9
2023-01-12T01:56:01.098Z,42.7
2023-01-12T01:57:01.110Z,42.6
2023-01-12T01:58:01.116Z,42.5
2023-01-12T01:59:01.259Z,42.2
2023-01-12T02:00:01.396Z,41.8
2023-01-12T02:01:01.546Z,41.6
2023-01-12T02:02:01.204Z,41.7
2023-01-12T02:03:01.210Z,41.6
2023-01-12T02:04:01.196Z,41.2
2023-01-12T02:05:01.153Z,41.2
2023-01-12T02:06:01.161Z,40.9
2023-01-12T02:07:01.261Z,40.5
2023-01-12T02:08:01.287Z,40.2
2023-01-12T02:09:01.483Z,40.2
2023-01-12T02:10:01.080Z,40.4
2023-01-12T02:11:01.121Z,39.8
2023-01-12T02:12:01.141Z,39.6
2023-01-12T02:13:01.919Z,39.6
2023-01-12T02:14:01.174Z,39.3
2023-01-12T02:15:01.271Z,39.3
2023-01-12T02:16:02.107Z,39.3
2023-01-12T02:17:01.313Z,38.9
2023-01-12T02:18:02.182Z,38.8
2023-01-12T02:19:01.149Z,38.7
2023-01-12T02:20:01.156Z,38.3
2023-01-12T02:21:01.157Z,38.3
2023-01-12T02:22:01.234Z,38.2
2023-01-12T02:23:01.079Z,38.3
2023-01-12T02:24:03.901Z,38.2
2023-01-12T02:25:01.924Z,38.3
2023-01-12T02:26:02.132Z,38.2
2023-01-12T02:27:01.869Z,38.3
2023-01-12T02:28:01.128Z,38
2023-01-12T02:29:01.098Z,37.6
2023-01-12T02:30:01.132Z,37.5
2023-01-12T02:31:01.241Z,37.4
2023-01-12T02:32:01.137Z,37.1
2023-01-12T02:33:01.190Z,37
2023-01-12T02:34:01.441Z,36.8
2023-01-12T02:35:01.520Z,36.8
2023-01-12T02:36:02.198Z,36.7
2023-01-12T02:37:03.371Z,36.7
2023-01-12T02:38:01.175Z,36.8
2023-01-12T02:39:01.808Z,36.6
2023-01-12T02:40:01.070Z,36.7
2023-01-12T02:41:01.082Z,36.6
2023-01-12T02:42:07.297Z,36.6
2023-01-12T02:43:01.121Z,36.2
2023-01-12T02:44:01.074Z,36.2
2023-01-12T02:45:01.086Z,36.2
2023-01-12T02:46:01.716Z,36.1
2023-01-12T02:47:09.812Z,35.8
2023-01-12T02:48:01.429Z,35.6
2023-01-12T02:49:01.089Z,35.3
2023-01-12T02:50:01.195Z,35.3
2023-01-12T02:51:01.475Z,35.3
2023-01-12T02:52:12.619Z,35.3
2023-01-12T02:53:01.079Z,35.2
2023-01-12T02:54:01.165Z,35.1
2023-01-12T02:55:01.159Z,35.2
2023-01-12T02:56:01.069Z,34.6
2023-01-12T02:57:14.393Z,34.5
2023-01-12T02:58:01.108Z,34.5
2023-01-12T02:59:01.084Z,34.4
2023-01-12T03:00:01.317Z,34.4
2023-01-12T03:01:01.656Z,34.4
2023-01-12T03:02:16.839Z,34.4
2023-01-12T03:03:01.708Z,34.3
2023-01-12T03:04:01.839Z,34
2023-01-12T03:05:01.805Z,33.7
2023-01-12T03:06:01.445Z,33.6
2023-01-12T03:07:01.159Z,33.3
2023-01-12T03:08:01.149Z,33
2023-01-12T03:09:01.157Z,33
2023-01-12T03:10:01.539Z,32.8
2023-01-12T03:11:01.275Z,32.4
2023-01-12T03:12:01.074Z,32
2023-01-12T03:13:01.079Z,31.7
2023-01-12T03:14:01.055Z,31.4
2023-01-12T03:15:00.766Z,31.1
2023-01-12T03:16:00.536Z,31.1
2023-01-12T03:17:00.284Z,30.9
2023-01-12T03:18:00.001Z,30.6
2023-01-12T03:18:59.659Z,30.2
2023-01-12T03:20:01.311Z,30.3
2023-01-12T03:21:02.057Z,30
2023-01-12T03:22:01.128Z,30
2023-01-12T03:23:01.069Z,30
2023-01-12T03:24:01.754Z,30
2023-01-12T03:25:01.151Z,29.6
2023-01-12T03:26:01.173Z,29.4
2023-01-12T03:27:01.222Z,29.3
2023-01-12T03:28:02.207Z,29.4
2023-01-12T03:29:00.875Z,29.2
2023-01-12T03:30:01.091Z,29.1
2023-01-12T03:31:01.096Z,28.8
2023-01-12T03:32:01.113Z,28.9
2023-01-12T03:33:01.161Z,28.7
2023-01-12T03:34:01.111Z,28.5
2023-01-12T03:35:01.131Z,28.5
2023-01-12T03:36:01.123Z,28.5
2023-01-12T03:37:01.150Z,28.4
2023-01-12T03:38:01.516Z,28.6
2023-01-12T03:39:01.540Z,28.6
2023-01-12T03:40:01.267Z,28.7
2023-01-12T03:41:01.142Z,28.7
2023-01-12T03:42:01.175Z,28.6
2023-01-12T03:43:01.194Z,28.4
2023-01-12T03:44:01.204Z,28.5
2023-01-12T03:45:01.085Z,28.5
2023-01-12T03:46:01.084Z,28.5
2023-01-12T03:47:01.604Z,28.3
2023-01-12T03:48:01.160Z,28.3
2023-01-12T03:49:01.095Z,28.4
2023-01-12T03:50:01.153Z,28
2023-01-12T03:51:01.115Z,28.1
2023-01-12T03:52:01.115Z,28.2
2023-01-12T03:53:01.519Z,28
2023-01-12T03:54:01.146Z,27.6
2023-01-12T03:55:01.188Z,27.6
2023-01-12T03:56:01.145Z,27.8
2023-01-12T03:57:01.213Z,27.7
2023-01-12T03:58:01.070Z,27.7
2023-01-12T03:59:01.161Z,27.5
2023-01-12T04:00:01.304Z,27.4
2023-01-12T04:01:01.546Z,27.3
2023-01-12T04:02:01.101Z,26.9
2023-01-12T04:03:01.143Z,26.8
2023-01-12T04:04:01.759Z,26.7
2023-01-12T04:05:01.358Z,26.5
2023-01-12T04:06:02.158Z,26.4
2023-01-12T04:07:01.896Z,26.2
2023-01-12T04:08:01.119Z,26.1
2023-01-12T04:09:01.113Z,25.6
2023-01-12T04:10:01.537Z,25.5
2023-01-12T04:11:01.161Z,25.6
2023-01-12T04:12:01.175Z,25.6
2023-01-12T04:13:01.158Z,25.4
2023-01-12T04:14:00.694Z,25.4
2023-01-12T04:15:00.422Z,25.5
2023-01-12T04:16:00.243Z,25.3
2023-01-12T04:16:59.931Z,25.1
2023-01-12T04:17:59.581Z,24.7
2023-01-12T04:19:01.284Z,25
2023-01-12T04:20:01.972Z,24.9
2023-01-12T04:21:01.945Z,24.6
2023-01-12T04:22:01.098Z,24.5
2023-01-12T04:23:01.459Z,24.8
2023-01-12T04:24:01.110Z,24.8
2023-01-12T04:25:01.135Z,24.4
2023-01-12T04:26:01.225Z,24.3
2023-01-12T04:27:01.132Z,24.5
2023-01-12T04:28:01.209Z,24.6
2023-01-12T04:29:01.132Z,24.3
2023-01-12T04:30:01.583Z,24.2
2023-01-12T04:31:01.167Z,24.2
2023-01-12T04:32:01.344Z,24.1
2023-01-12T04:33:04.150Z,23.8
2023-01-12T04:34:02.006Z,24.4
2023-01-12T04:35:01.125Z,24.1
2023-01-12T04:36:01.076Z,24
2023-01-12T04:37:01.085Z,23.9
2023-01-12T04:38:06.763Z,23.7
2023-01-12T04:39:01.064Z,23.6
2023-01-12T04:40:01.062Z,23.5
2023-01-12T04:41:01.107Z,23.5
2023-01-12T04:42:01.122Z,23.6
2023-01-12T04:43:11.323Z,24.1
2023-01-12T04:44:01.513Z,23.6
2023-01-12T04:45:02.785Z,23.4
2023-01-12T04:46:01.219Z,23.4
2023-01-12T04:47:01.167Z,23.5
2023-01-12T04:48:13.359Z,23.2
2023-01-12T04:49:01.825Z,23.4
2023-01-12T04:50:01.162Z,23.5
2023-01-12T04:51:01.870Z,23.5
2023-01-12T04:52:01.841Z,23.7
2023-01-12T04:53:16.793Z,23.7
2023-01-12T04:54:01.181Z,23.6
2023-01-12T04:55:01.100Z,23.6
2023-01-12T04:56:01.124Z,23.6
2023-01-12T04:57:01.124Z,23.6
2023-01-12T04:58:01.153Z,23.6
2023-01-12T04:59:01.071Z,23.8
2023-01-12T05:00:01.307Z,23.6
2023-01-12T05:01:01.596Z,23.7
2023-01-12T05:02:01.272Z,23.6
2023-01-12T05:03:01.956Z,23.6
2023-01-12T05:04:01.241Z,23.5
2023-01-12T05:05:01.468Z,23.3
2023-01-12T05:06:02.062Z,23.3
2023-01-12T05:07:01.178Z,23.7
2023-01-12T05:08:01.052Z,23.6
2023-01-12T05:09:01.084Z,23.5
2023-01-12T05:10:01.310Z,23.6
2023-01-12T05:11:01.125Z,23.7
2023-01-12T05:12:01.126Z,23.8
2023-01-12T05:13:01.239Z,23.8
2023-01-12T05:14:01.127Z,23.9
2023-01-12T05:15:01.320Z,23.9
2023-01-12T05:16:01.519Z,23.7
2023-01-12T05:17:02.123Z,23.9
2023-01-12T05:18:02.058Z,23.6
2023-01-12T05:19:01.083Z,23.2
2023-01-12T05:20:01.344Z,23.4
2023-01-12T05:21:01.060Z,23.4
2023-01-12T05:22:01.066Z,23
2023-01-12T05:23:01.070Z,23.3
2023-01-12T05:24:00.697Z,23.4
2023-01-12T05:25:00.366Z,23.2
2023-01-12T05:25:59.960Z,23.3
2023-01-12T05:26:59.656Z,23.1
2023-01-12T05:28:02.348Z,23
2023-01-12T05:29:01.641Z,23.1
2023-01-12T05:30:01.319Z,23.4
2023-01-12T05:31:02.651Z,23.4
2023-01-12T05:32:01.339Z,23.4
2023-01-12T05:33:02.560Z,23.7
2023-01-12T05:34:01.217Z,23.8
2023-01-12T05:35:01.338Z,23.8
2023-01-12T05:36:01.341Z,23.9
2023-01-12T05:37:01.572Z,23.9
2023-01-12T05:38:01.146Z,23.9
2023-01-12T05:39:01.097Z,24.1
2023-01-12T05:40:01.242Z,24.2
2023-01-12T05:41:01.967Z,24
2023-01-12T05:42:02.015Z,24.2
2023-01-12T05:43:00.763Z,24.1
2023-01-12T05:44:01.999Z,24.3
2023-01-12T05:45:02.143Z,24.2
2023-01-12T05:46:01.431Z,24.3
2023-01-12T05:47:01.130Z,24.3
2023-01-12T05:48:01.154Z,24.2
2023-01-12T05:49:01.051Z,24.2
2023-01-12T05:50:01.180Z,24.4
2023-01-12T05:51:01.163Z,24.7
2023-01-12T05:52:01.332Z,24.5
2023-01-12T05:53:00.854Z,24.3
2023-01-12T05:54:01.095Z,24.3
2023-01-12T05:55:01.068Z,24.2
2023-01-12T05:56:01.166Z,24.3
2023-01-12T05:57:01.779Z,24
2023-01-12T05:58:01.085Z,23.9
2023-01-12T05:59:01.105Z,23.8
2023-01-12T06:00:00.774Z,23.9
2023-01-12T06:01:00.440Z,24
2023-01-12T06:02:00.315Z,24
2023-01-12T06:03:00.049Z,24
2023-01-12T06:03:59.678Z,24.2
2023-01-12T06:05:01.622Z,24.2
2023-01-12T06:06:01.289Z,24
2023-01-12T06:07:02.405Z,24
2023-01-12T06:08:01.202Z,23.8
2023-01-12T06:09:01.287Z,23.4
2023-01-12T06:10:01.177Z,23.6
2023-01-12T06:11:01.420Z,23.7
2023-01-12T06:12:01.486Z,23.7
2023-01-12T06:13:01.271Z,23.5
2023-01-12T06:14:01.205Z,23.1
2023-01-12T06:15:00.902Z,23.2
2023-01-12T06:16:01.307Z,23.3
2023-01-12T06:17:01.112Z,23.5
2023-01-12T06:18:01.114Z,23.3
2023-01-12T06:19:00.834Z,22.9
2023-01-12T06:20:00.501Z,22.9
2023-01-12T06:21:00.213Z,22.9
2023-01-12T06:21:59.924Z,22.7
2023-01-12T06:22:59.509Z,22.9
2023-01-12T06:24:03.543Z,22.7
2023-01-12T06:25:01.247Z,22.7
2023-01-12T06:26:01.086Z,22.6
2023-01-12T06:27:01.162Z,22.7
2023-01-12T06:28:01.085Z,22.7
2023-01-12T06:29:06.484Z,22.7
2023-01-12T06:30:01.115Z,22.6
2023-01-12T06:31:01.156Z,22.7
2023-01-12T06:32:01.092Z,22.7
2023-01-12T06:33:01.155Z,22.6
2023-01-12T06:34:09.323Z,22.6
2023-01-12T06:35:07.059Z,22.4
2023-01-12T06:36:02.032Z,22.5
2023-01-12T06:37:01.282Z,22.5
2023-01-12T06:38:01.284Z,21.7
2023-01-12T06:39:11.868Z,21.5
2023-01-12T06:40:02.219Z,21.6
2023-01-12T06:41:01.153Z,21.4
2023-01-12T06:42:01.178Z,21.3
2023-01-12T06:43:01.801Z,21.1
2023-01-12T06:44:14.208Z,20.5
2023-01-12T06:45:01.492Z,20.3
2023-01-12T06:46:02.531Z,20.3
2023-01-12T06:47:01.092Z,20
2023-01-12T06:48:01.324Z,20
2023-01-12T06:49:16.344Z,20.1
2023-01-12T06:50:02.114Z,20
2023-01-12T06:51:02.203Z,19.9
2023-01-12T06:52:02.250Z,19.8
2023-01-12T06:53:01.128Z,19.8
2023-01-12T06:54:01.140Z,19.7
2023-01-12T06:55:01.191Z,19.6
2023-01-12T06:56:06.296Z,19.4
2023-01-12T06:57:01.540Z,19.4
2023-01-12T06:58:01.173Z,19.6
2023-01-12T06:59:01.293Z,19.5
2023-01-12T07:00:01.071Z,19.4
2023-01-12T07:01:01.186Z,19.5
2023-01-12T07:02:02.520Z,19.3
2023-01-12T07:03:01.091Z,19.6
2023-01-12T07:04:01.169Z,19.6
2023-01-12T07:05:01.490Z,19.6
2023-01-12T07:06:01.247Z,19.7
2023-01-12T07:07:01.122Z,19.6
2023-01-12T07:08:01.139Z,19.5
2023-01-12T07:09:01.182Z,19.5
2023-01-12T07:10:01.675Z,19.5
2023-01-12T07:11:01.169Z,19.5
2023-01-12T07:12:01.151Z,19.6
2023-01-12T07:13:01.166Z,19.5
2023-01-12T07:14:01.213Z,19.6
2023-01-12T07:15:01.065Z,19.7
2023-01-12T07:16:01.178Z,19.7
2023-01-12T07:17:01.121Z,19.7
2023-01-12T07:18:01.114Z,19.6
2023-01-12T07:19:01.367Z,19.7
2023-01-12T07:20:01.118Z,19.7
2023-01-12T07:21:01.116Z,19.6
2023-01-12T07:22:01.112Z,19.7
2023-01-12T07:23:01.907Z,19.6
2023-01-12T07:24:01.650Z,19.6
2023-01-12T07:25:01.093Z,19.6
2023-01-12T07:26:01.149Z,19.6
2023-01-12T07:27:01.133Z,19.6
2023-01-12T07:28:01.306Z,19.6
2023-01-12T07:29:01.157Z,19.6
2023-01-12T07:30:01.114Z,19.7
2023-01-12T07:31:01.550Z,19.8
2023-01-12T07:32:01.203Z,19.7
2023-01-12T07:33:02.120Z,19.6
2023-01-12T07:34:01.134Z,19.8
2023-01-12T07:35:01.088Z,19.7
2023-01-12T07:36:01.088Z,19.7
2023-01-12T07:37:01.110Z,19.6
2023-01-12T07:38:01.117Z,19.4
2023-01-12T07:39:00.840Z,19.5
2023-01-12T07:40:00.587Z,19.5
2023-01-12T07:41:00.460Z,19.7
2023-01-12T07:42:00.132Z,19.6
2023-01-12T07:42:59.797Z,19.5
2023-01-12T07:44:01.973Z,19.3
2023-01-12T07:45:01.923Z,19
2023-01-12T07:46:01.275Z,19
2023-01-12T07:47:00.796Z,18.9
2023-01-12T07:48:03.756Z,18.7
2023-01-12T07:49:01.589Z,18.6
2023-01-12T07:50:01.696Z,18.7
2023-01-12T07:51:01.274Z,18.7
2023-01-12T07:52:03.110Z,19
2023-01-12T07:53:01.542Z,18.8
2023-01-12T07:54:01.225Z,18.6
2023-01-12T07:55:01.126Z,18.5
2023-01-12T07:56:01.793Z,18.5
2023-01-12T07:57:01.428Z,18.6
2023-01-12T07:58:02.074Z,18.4
2023-01-12T07:59:01.232Z,18.4
2023-01-12T08:00:01.322Z,18.5
2023-01-12T08:01:01.600Z,18.2
2023-01-12T08:01:59.735Z,18.1
2023-01-12T08:03:02.245Z,18.4
2023-01-12T08:04:01.613Z,18.7
2023-01-12T08:05:01.072Z,18.7
2023-01-12T08:06:01.094Z,18.8
2023-01-12T08:07:01.233Z,18.8
2023-01-12T08:08:03.352Z,18.5
2023-01-12T08:09:01.136Z,18.4
2023-01-12T08:10:01.557Z,18.3
2023-01-12T08:11:01.171Z,18.1
2023-01-12T08:12:01.129Z,18.1
2023-01-12T08:13:01.070Z,18.2
2023-01-12T08:14:01.127Z,18.1
2023-01-12T08:15:04.205Z,18
2023-01-12T08:16:01.145Z,17.6
2023-01-12T08:17:01.142Z,17.6
2023-01-12T08:18:01.157Z,17.8
2023-01-12T08:19:01.296Z,17.9
2023-01-12T08:20:05.872Z,17.8
2023-01-12T08:21:02.274Z,17.6
2023-01-12T08:22:01.873Z,17.7
2023-01-12T08:23:02.892Z,17.7
2023-01-12T08:24:01.752Z,17.7
2023-01-12T08:25:09.064Z,17.7
2023-01-12T08:26:01.779Z,17.7
2023-01-12T08:27:01.121Z,17.5
2023-01-12T08:28:01.331Z,17.1
2023-01-12T08:29:01.122Z,17
2023-01-12T08:30:11.563Z,16.9
2023-01-12T08:31:01.436Z,17.7
2023-01-12T08:32:01.118Z,18
2023-01-12T08:33:01.163Z,17.7
2023-01-12T08:34:01.587Z,17.3
2023-01-12T08:35:14.790Z,17
2023-01-12T08:36:01.748Z,16.8
2023-01-12T08:37:02.035Z,16.4
2023-01-12T08:38:01.291Z,16.4
2023-01-12T08:39:00.903Z,16.1
2023-01-12T08:40:16.763Z,16.6
2023-01-12T08:41:01.106Z,16.5
2023-01-12T08:42:01.128Z,16.3
2023-01-12T08:43:01.108Z,16
2023-01-12T08:44:01.136Z,15.7
2023-01-12T08:45:01.121Z,15.8
2023-01-12T08:46:01.265Z,15.6
2023-01-12T08:47:01.433Z,15.7
2023-01-12T08:48:01.470Z,15.7
2023-01-12T08:49:01.510Z,15.6
2023-01-12T08:50:01.482Z,15.5
2023-01-12T08:51:02.976Z,15.5
2023-01-12T08:52:01.375Z,15.4
2023-01-12T08:53:01.070Z,15.2
2023-01-12T08:54:01.076Z,15.5
2023-01-12T08:55:01.104Z,15.4
2023-01-12T08:56:01.551Z,15.7
2023-01-12T08:57:01.094Z,15.5
2023-01-12T08:58:01.108Z,15.4
2023-01-12T08:59:00.908Z,15
2023-01-12T09:00:01.140Z,15.4
2023-01-12T09:01:01.263Z,14.8
2023-01-12T09:02:00.031Z,14.8
2023-01-12T09:02:59.784Z,14.4
2023-01-12T09:04:03.148Z,14.8
2023-01-12T09:05:01.463Z,15
2023-01-12T09:06:02.119Z,14.8
2023-01-12T09:07:01.236Z,14.3
2023-01-12T09:08:01.160Z,14.4
2023-01-12T09:09:01.921Z,14.1
2023-01-12T09:10:01.242Z,13.9
2023-01-12T09:11:01.070Z,13.6
2023-01-12T09:12:01.186Z,13.3
2023-01-12T09:13:01.085Z,13.5
2023-01-12T09:14:01.141Z,13.3
2023-01-12T09:15:01.108Z,13.3
2023-01-12T09:16:12.183Z,13.3
2023-01-12T09:17:01.921Z,13.4
2023-01-12T09:18:01.133Z,13.1
2023-01-12T09:19:01.267Z,12.7
2023-01-12T09:20:01.139Z,12.6
2023-01-12T09:21:01.141Z,12.4
2023-01-12T09:22:01.320Z,12.3
2023-01-12T09:23:01.338Z,12.4
2023-01-12T09:24:01.574Z,12.1
2023-01-12T09:25:02.754Z,11.7
2023-01-12T09:26:01.080Z,12
2023-01-12T09:27:01.099Z,12
2023-01-12T09:28:01.078Z,11.9
2023-01-12T09:29:01.093Z,12.5
2023-01-12T09:30:01.127Z,11.5
2023-01-12T09:31:01.106Z,11.3
2023-01-12T09:31:59.616Z,11
2023-01-12T09:33:01.307Z,11.1
2023-01-12T09:34:01.051Z,11
2023-01-12T09:35:01.084Z,11
2023-01-12T09:36:01.176Z,11.3
2023-01-12T09:37:01.149Z,11.5
2023-01-12T09:38:01.179Z,10.9
2023-01-12T09:39:00.856Z,10.9
2023-01-12T09:40:00.737Z,10.9
2023-01-12T09:41:02.295Z,11
2023-01-12T09:42:02.139Z,11.3
2023-01-12T09:43:01.686Z,10.3
2023-01-12T09:44:01.082Z,10.5
2023-01-12T09:45:01.081Z,10.6
2023-01-12T09:46:01.177Z,10.6
2023-01-12T09:47:01.071Z,10.9
2023-01-12T09:48:01.105Z,10.8
2023-01-12T09:49:01.328Z,10.4
2023-01-12T09:50:09.241Z,10.5
2023-01-12T09:51:02.178Z,9.8
2023-01-12T09:52:01.129Z,9.6
2023-01-12T09:53:01.571Z,9.5
2023-01-12T09:54:00.729Z,9.7
2023-01-12T09:55:00.517Z,9.7
2023-01-12T09:56:00.247Z,9.2
2023-01-12T09:56:59.920Z,9.5
2023-01-12T09:57:59.702Z,8.9
2023-01-12T09:59:01.368Z,8.5
2023-01-12T10:00:01.151Z,8.5
2023-01-12T10:01:00.986Z,8.9
2023-01-12T10:02:00.489Z,8.5
2023-01-12T10:03:00.337Z,8.8
2023-01-12T10:04:00.107Z,8.7
2023-01-12T10:04:59.952Z,7.9
2023-01-12T10:06:05.472Z,7.7
2023-01-12T10:07:01.517Z,7.3
2023-01-12T10:08:02.156Z,7
2023-01-12T10:09:01.111Z,7.2
2023-01-12T10:10:01.167Z,7.3
2023-01-12T10:11:09.228Z,7.7
2023-01-12T10:12:01.167Z,7.1
2023-01-12T10:13:01.178Z,6.5
2023-01-12T10:14:01.074Z,6.2
2023-01-12T10:15:01.080Z,6.3
2023-01-12T10:16:11.303Z,6
2023-01-12T10:17:04.576Z,5.9
2023-01-12T10:18:02.077Z,6
2023-01-12T10:19:01.212Z,6
2023-01-12T10:20:01.144Z,6.5
2023-01-12T10:21:13.695Z,5.7
2023-01-12T10:22:01.443Z,6.2
2023-01-12T10:23:02.185Z,5.8
2023-01-12T10:24:01.135Z,5.8
2023-01-12T10:25:01.244Z,6
2023-01-12T10:26:17.008Z,5.2
2023-01-12T10:27:01.201Z,5
2023-01-12T10:28:01.167Z,4.9
2023-01-12T10:29:01.170Z,4.8
2023-01-12T10:30:01.079Z,4.6
2023-01-12T10:31:01.087Z,4.7
2023-01-12T10:32:00.060Z,4.9
2023-01-12T10:32:59.756Z,4.8
2023-01-12T10:34:01.471Z,4.7
2023-01-12T10:35:01.115Z,4.2
2023-01-12T10:36:01.105Z,5.1
2023-01-12T10:37:01.112Z,5.1
2023-01-12T10:38:01.133Z,4.4
2023-01-12T10:39:00.872Z,4.3
2023-01-12T10:40:01.173Z,4.5
2023-01-12T10:41:01.143Z,4.5
2023-01-12T10:42:02.049Z,4.1
2023-01-12T10:43:04.239Z,4.2
2023-01-12T10:44:01.180Z,4.8
2023-01-12T10:45:01.171Z,4.5
2023-01-12T10:46:02.058Z,4.9
2023-01-12T10:47:01.068Z,3.7
2023-01-12T10:48:01.093Z,4.3
2023-01-12T10:49:01.074Z,3.6
2023-01-12T10:50:01.109Z,3.5
2023-01-12T10:51:01.440Z,3.2
2023-01-12T10:52:03.961Z,3.5
2023-01-12T10:53:01.195Z,3.5
2023-01-12T10:54:03.989Z,3.1
2023-01-12T10:55:01.135Z,3.3
2023-01-12T10:56:01.173Z,3.2
2023-01-12T10:57:01.077Z,3.5
2023-01-12T10:58:01.675Z,3.3
2023-01-12T10:59:00.844Z,2.8
2023-01-12T11:00:00.575Z,2.3
2023-01-12T11:01:00.676Z,2.7
2023-01-12T11:01:59.958Z,2.4
2023-01-12T11:02:59.781Z,2.3
2023-01-12T11:04:04.610Z,2.4
2023-01-12T11:05:01.911Z,2.6
2023-01-12T11:06:01.099Z,2.5
2023-01-12T11:07:02.281Z,2.3
2023-01-12T11:08:01.120Z,2
2023-01-12T11:09:01.175Z,2.2
2023-01-12T11:10:01.578Z,2
2023-01-12T11:11:02.197Z,1.8
2023-01-12T11:12:01.136Z,1.8
2023-01-12T11:13:02.584Z,1.7
2023-01-12T11:14:01.148Z,1.7
2023-01-12T11:15:01.224Z,2.1
2023-01-12T11:16:01.198Z,2.5
2023-01-12T11:17:01.355Z,2.7
2023-01-12T11:18:01.488Z,2.3
2023-01-12T11:19:01.463Z,2.1
2023-01-12T11:20:01.208Z,1.8
2023-01-12T11:21:00.860Z,2
2023-01-12T11:22:00.482Z,1.7
2023-01-12T11:23:00.053Z,1.5
2023-01-12T11:23:59.753Z,1.8
2023-01-12T11:25:01.862Z,1.6
2023-01-12T11:26:01.163Z,1.7
2023-01-12T11:27:02.146Z,1.4
2023-01-12T11:28:01.142Z,1.6
2023-01-12T11:29:01.125Z,1.5
2023-01-12T11:30:01.147Z,1.7
2023-01-12T11:31:01.251Z,2.2
2023-01-12T11:32:00.226Z,2.1
2023-01-12T11:32:59.781Z,1.8
2023-01-12T11:34:01.469Z,1.6
2023-01-12T11:35:02.690Z,1.9
2023-01-12T11:36:02.786Z,1.9
2023-01-12T11:37:01.053Z,1.7
2023-01-12T11:38:01.119Z,2.1
2023-01-12T11:39:00.693Z,1.8
2023-01-12T11:40:00.391Z,1.6
2023-01-12T11:41:00.074Z,1.7
2023-01-12T11:42:01.876Z,1.6
2023-01-12T11:43:01.138Z,1.8
2023-01-12T11:44:00.434Z,2
2023-01-12T11:45:00.415Z,1.7
2023-01-12T11:46:00.157Z,1.6
2023-01-12T11:47:06.048Z,1.5
2023-01-12T11:48:01.558Z,1.5
2023-01-12T11:49:01.169Z,2
2023-01-12T11:50:01.177Z,1.7
2023-01-12T11:51:03.937Z,1.7
2023-01-12T11:52:08.839Z,2.1
2023-01-12T11:53:01.083Z,1.7
2023-01-12T11:54:01.271Z,1.6
2023-01-12T11:55:01.159Z,1.8
2023-01-12T11:56:01.285Z,1.5
2023-01-12T11:57:11.827Z,1.5
2023-01-12T11:58:01.170Z,1.6
2023-01-12T11:59:00.561Z,1.7
2023-01-12T12:00:00.207Z,1.7
2023-01-12T12:01:00.005Z,1.7
2023-01-12T12:02:13.486Z,1.7
2023-01-12T12:03:01.151Z,2
2023-01-12T12:04:01.163Z,2
2023-01-12T12:05:00.942Z,2.2
2023-01-12T12:06:00.754Z,2.1
2023-01-12T12:07:16.036Z,1.9
2023-01-12T12:08:01.567Z,1.9
2023-01-12T12:09:01.136Z,2
2023-01-12T12:10:01.134Z,2.2
2023-01-12T12:11:01.912Z,2.1
2023-01-12T12:12:02.012Z,2.4
2023-01-12T12:13:01.104Z,2.6
2023-01-12T12:14:01.139Z,2.8
2023-01-12T12:15:01.123Z,3.5
2023-01-12T12:16:01.243Z,3.5
2023-01-12T12:17:01.126Z,4
2023-01-12T12:18:01.545Z,4.1
2023-01-12T12:19:00.841Z,3.9
2023-01-12T12:20:01.179Z,3.6
2023-01-12T12:21:01.166Z,3.8
2023-01-12T12:22:01.166Z,3.7
2023-01-12T12:23:01.313Z,3.6
2023-01-12T12:24:01.174Z,4.2
2023-01-12T12:25:01.134Z,4.1
2023-01-12T12:26:01.385Z,4.2
2023-01-12T12:27:01.353Z,4.4
2023-01-12T12:28:02.329Z,4.3
2023-01-12T12:29:01.143Z,4.4
2023-01-12T12:30:01.127Z,4.5
2023-01-12T12:31:01.976Z,4.7
2023-01-12T12:32:00.336Z,5.1
2023-01-12T12:33:00.122Z,4.7
2023-01-12T12:33:59.802Z,4.7
2023-01-12T12:35:01.867Z,4.7
2023-01-12T12:36:01.830Z,4.7
2023-01-12T12:37:01.604Z,4.7
2023-01-12T12:38:01.144Z,5.1
2023-01-12T12:39:01.318Z,5.1
2023-01-12T12:40:00.837Z,5.1
2023-01-12T12:41:00.590Z,5.3
2023-01-12T12:42:00.566Z,4.9
2023-01-12T12:43:00.265Z,4.9
2023-01-12T12:44:00.070Z,5.1
2023-01-12T12:44:59.761Z,5.3
2023-01-12T12:46:01.607Z,5.4
2023-01-12T12:47:01.212Z,5.5
2023-01-12T12:48:01.468Z,5.5
2023-01-12T12:49:01.241Z,5.6
2023-01-12T12:50:01.218Z,5.8
2023-01-12T12:51:01.532Z,5.8
2023-01-12T12:52:01.543Z,5.8
2023-01-12T12:53:01.206Z,5.9
2023-01-12T12:54:01.156Z,6.3
2023-01-12T12:55:01.085Z,6.2
2023-01-12T12:56:01.088Z,6.3
2023-01-12T12:57:01.092Z,6.1
2023-01-12T12:58:01.090Z,6.4
2023-01-12T12:59:01.797Z,6.2
2023-01-12T13:00:01.189Z,6.2
2023-01-12T13:01:04.322Z,6.2
2023-01-12T13:02:01.170Z,6.4
2023-01-12T13:03:01.179Z,6.4
2023-01-12T13:04:01.182Z,6.2
2023-01-12T13:05:03.740Z,6.5
2023-01-12T13:06:01.556Z,6.6
2023-01-12T13:07:01.267Z,6.7
2023-01-12T13:08:01.869Z,6.7
2023-01-12T13:09:02.007Z,7.1
2023-01-12T13:10:01.252Z,6.9
2023-01-12T13:11:01.171Z,6.9
2023-01-12T13:12:01.150Z,6.9
2023-01-12T13:13:01.084Z,7
2023-01-12T13:14:01.106Z,6.9
2023-01-12T13:15:01.128Z,7.1
2023-01-12T13:16:01.194Z,7.2
2023-01-12T13:17:01.133Z,7.6
2023-01-12T13:18:01.034Z,7.7
2023-01-12T13:19:01.656Z,8
2023-01-12T13:20:04.318Z,8.6
2023-01-12T13:21:01.827Z,8.6
2023-01-12T13:22:01.139Z,8.6
2023-01-12T13:23:03.742Z,8.9
2023-01-12T13:24:01.181Z,8.8
2023-01-12T13:25:01.179Z,9.4
2023-01-12T13:26:01.146Z,8.9
2023-01-12T13:27:01.184Z,9.1
2023-01-12T13:28:06.793Z,9.2
2023-01-12T13:29:01.094Z,9.6
2023-01-12T13:30:01.249Z,9.7